BAW39K EHAM-EGKK
Flight info
| Callsign | BAW39K |
|---|---|
| Flight time | 0h 46m |
| Altitude | 24000 |
| Route | VALKO3S IDRID L980 ABNED Z344 AMRIV Q63 ARREK Y4 TEBRA TEBRA2G |
| Aircraft | B772/H-SDE2E3FGHIJ5LORVWXY/LB1D1 |
Departure
| Time | 2026-05-04 14:42 |
|---|---|
| Airport | Amsterdam Airport Schiphol (EHAM) |
Arrival
| Time | 2026-05-04 15:29 |
|---|---|
| Airport | London Gatwick Airport (EGKK) |
| Time | Latitude | Longitude | Altitude | Speed | Heading |
|---|---|---|---|---|---|
| 2026-05-04 13:55 | 52.31299 | 4.76310 | 9 ft | 0 kts | 253° |
| 2026-05-04 14:19 | 52.31305 | 4.76345 | 10 ft | 3 kts | 254° |
| 2026-05-04 14:19 | 52.31311 | 4.76378 | 10 ft | 3 kts | 253° |
| 2026-05-04 14:19 | 52.31317 | 4.76410 | 10 ft | 3 kts | 253° |
| 2026-05-04 14:19 | 52.31323 | 4.76443 | 10 ft | 3 kts | 252° |
| 2026-05-04 14:20 | 52.31327 | 4.76463 | 10 ft | 1 kts | 251° |
| 2026-05-04 14:21 | 52.31327 | 4.76462 | 10 ft | 0 kts | 251° |
| 2026-05-04 14:21 | 52.31315 | 4.76405 | 12 ft | 10 kts | 251° |
| 2026-05-04 14:22 | 52.31311 | 4.76386 | 11 ft | 0 kts | 252° |
| 2026-05-04 14:22 | 52.31311 | 4.76385 | 11 ft | 3 kts | 252° |
| 2026-05-04 14:22 | 52.31310 | 4.76381 | 9 ft | 0 kts | 253° |
| 2026-05-04 14:22 | 52.31308 | 4.76372 | 10 ft | 0 kts | 253° |
| 2026-05-04 14:23 | 52.31306 | 4.76362 | 11 ft | 0 kts | 253° |
| 2026-05-04 14:24 | 52.31306 | 4.76358 | 9 ft | 3 kts | 253° |
| 2026-05-04 14:24 | 52.31305 | 4.76354 | 9 ft | 0 kts | 252° |
| 2026-05-04 14:25 | 52.31299 | 4.76310 | 9 ft | 0 kts | 253° |
| 2026-05-04 14:28 | 52.31300 | 4.76314 | 9 ft | 3 kts | 253° |
| 2026-05-04 14:29 | 52.31311 | 4.76380 | 9 ft | 3 kts | 253° |
| 2026-05-04 14:29 | 52.31323 | 4.76445 | 9 ft | 3 kts | 252° |
| 2026-05-04 14:30 | 52.31325 | 4.76453 | 10 ft | 1 kts | 252° |
| 2026-05-04 14:31 | 52.31325 | 4.76450 | 10 ft | 2 kts | 264° |
| 2026-05-04 14:32 | 52.31337 | 4.76438 | 10 ft | 0 kts | 341° |
| 2026-05-04 14:33 | 52.31356 | 4.76428 | 27 ft | 9 kts | 343° |
| 2026-05-04 14:33 | 52.31416 | 4.76399 | 15 ft | 13 kts | 343° |
| 2026-05-04 14:33 | 52.31511 | 4.76326 | 20 ft | 15 kts | 314° |
| 2026-05-04 14:34 | 52.31538 | 4.76163 | 21 ft | 15 kts | 270° |
| 2026-05-04 14:34 | 52.31533 | 4.75989 | 27 ft | 15 kts | 266° |
| 2026-05-04 14:34 | 52.31527 | 4.75808 | 18 ft | 17 kts | 267° |
| 2026-05-04 14:34 | 52.31520 | 4.75599 | 16 ft | 19 kts | 267° |
| 2026-05-04 14:35 | 52.31514 | 4.75388 | 15 ft | 19 kts | 267° |
| 2026-05-04 14:35 | 52.31505 | 4.75175 | 14 ft | 19 kts | 266° |
| 2026-05-04 14:35 | 52.31497 | 4.74964 | 18 ft | 19 kts | 267° |
| 2026-05-04 14:35 | 52.31491 | 4.74750 | 19 ft | 19 kts | 267° |
| 2026-05-04 14:36 | 52.31483 | 4.74537 | 23 ft | 19 kts | 265° |
| 2026-05-04 14:36 | 52.31491 | 4.74325 | 18 ft | 19 kts | 302° |
| 2026-05-04 14:36 | 52.31612 | 4.74300 | 20 ft | 18 kts | 4° |
| 2026-05-04 14:36 | 52.31738 | 4.74314 | 18 ft | 19 kts | 4° |
| 2026-05-04 14:37 | 52.31877 | 4.74328 | 12 ft | 21 kts | 3° |
| 2026-05-04 14:37 | 52.32015 | 4.74308 | 12 ft | 17 kts | 322° |
| 2026-05-04 14:37 | 52.32036 | 4.74118 | 16 ft | 17 kts | 271° |
| 2026-05-04 14:37 | 52.32040 | 4.73924 | 21 ft | 17 kts | 272° |
| 2026-05-04 14:38 | 52.32047 | 4.73729 | 23 ft | 17 kts | 275° |
| 2026-05-04 14:38 | 52.32058 | 4.73534 | 22 ft | 18 kts | 274° |
| 2026-05-04 14:38 | 52.32122 | 4.73309 | 13 ft | 30 kts | 318° |
| 2026-05-04 14:38 | 52.32300 | 4.73059 | 4 ft | 30 kts | 319° |
| 2026-05-04 14:39 | 52.32457 | 4.72840 | 2 ft | 30 kts | 319° |
| 2026-05-04 14:39 | 52.32573 | 4.72676 | 1 ft | 17 kts | 319° |
| 2026-05-04 14:39 | 52.32663 | 4.72547 | 4 ft | 17 kts | 319° |
| 2026-05-04 14:40 | 52.32854 | 4.72196 | 4 ft | 22 kts | 311° |
| 2026-05-04 14:40 | 52.32957 | 4.72007 | 3 ft | 22 kts | 311° |
| 2026-05-04 14:40 | 52.33060 | 4.71818 | 6 ft | 22 kts | 312° |
| 2026-05-04 14:40 | 52.33150 | 4.71615 | 12 ft | 22 kts | 283° |
| 2026-05-04 14:41 | 52.33074 | 4.71408 | 17 ft | 22 kts | 216° |
| 2026-05-04 14:41 | 52.32950 | 4.71218 | 19 ft | 26 kts | 223° |
| 2026-05-04 14:41 | 52.32959 | 4.70893 | 18 ft | 8 kts | 4° |
| 2026-05-04 14:42 | 52.33198 | 4.70915 | 16 ft | 75 kts | 3° |
| 2026-05-04 14:42 | 52.34003 | 4.70957 | 46 ft | 149 kts | 359° |
| 2026-05-04 14:42 | 52.35040 | 4.71018 | 836 ft | 149 kts | 2° |
| 2026-05-04 14:43 | 52.36107 | 4.71141 | 1764 ft | 159 kts | 3° |
| 2026-05-04 14:43 | 52.37268 | 4.71262 | 2497 ft | 184 kts | 2° |
| 2026-05-04 14:43 | 52.38590 | 4.71331 | 3509 ft | 192 kts | 360° |
| 2026-05-04 14:43 | 52.40068 | 4.71411 | 3996 ft | 231 kts | 2° |
| 2026-05-04 14:44 | 52.41733 | 4.71538 | 4020 ft | 239 kts | 359° |
| 2026-05-04 14:44 | 52.43332 | 4.70988 | 3971 ft | 237 kts | 334° |
| 2026-05-04 14:44 | 52.44693 | 4.69510 | 4309 ft | 236 kts | 314° |
| 2026-05-04 14:44 | 52.45816 | 4.67545 | 5184 ft | 236 kts | 309° |
| 2026-05-04 14:45 | 52.46561 | 4.65250 | 6159 ft | 232 kts | 277° |
| 2026-05-04 14:45 | 52.46621 | 4.62649 | 7147 ft | 227 kts | 269° |
| 2026-05-04 14:45 | 52.46649 | 4.60034 | 8122 ft | 234 kts | 269° |
| 2026-05-04 14:45 | 52.46682 | 4.57198 | 8542 ft | 264 kts | 270° |
| 2026-05-04 14:46 | 52.46415 | 4.54170 | 9151 ft | 274 kts | 245° |
| 2026-05-04 14:46 | 52.45210 | 4.51813 | 10070 ft | 276 kts | 216° |
| 2026-05-04 14:46 | 52.43557 | 4.50112 | 10742 ft | 288 kts | 212° |
| 2026-05-04 14:46 | 52.41953 | 4.47978 | 10930 ft | 311 kts | 233° |
| 2026-05-04 14:47 | 52.40849 | 4.44788 | 11155 ft | 333 kts | 244° |
| 2026-05-04 14:47 | 52.39794 | 4.41325 | 11949 ft | 343 kts | 243° |
| 2026-05-04 14:47 | 52.38680 | 4.37839 | 13053 ft | 346 kts | 243° |
| 2026-05-04 14:47 | 52.37546 | 4.34341 | 14090 ft | 351 kts | 243° |
| 2026-05-04 14:48 | 52.36387 | 4.30788 | 15002 ft | 355 kts | 242° |
| 2026-05-04 14:48 | 52.35230 | 4.27246 | 15925 ft | 360 kts | 242° |
| 2026-05-04 14:48 | 52.34037 | 4.23600 | 16854 ft | 364 kts | 242° |
| 2026-05-04 14:48 | 52.32830 | 4.19919 | 17759 ft | 368 kts | 242° |
| 2026-05-04 14:49 | 52.31609 | 4.16208 | 18593 ft | 373 kts | 241° |
| 2026-05-04 14:49 | 52.30220 | 4.12605 | 19349 ft | 376 kts | 234° |
| 2026-05-04 14:49 | 52.28641 | 4.09241 | 20121 ft | 378 kts | 232° |
| 2026-05-04 14:49 | 52.26973 | 4.05891 | 20899 ft | 381 kts | 232° |
| 2026-05-04 14:50 | 52.25285 | 4.02520 | 21644 ft | 384 kts | 232° |
| 2026-05-04 14:50 | 52.23598 | 3.99116 | 22382 ft | 387 kts | 232° |
| 2026-05-04 14:50 | 52.21908 | 3.95663 | 23122 ft | 390 kts | 233° |
| 2026-05-04 14:50 | 52.20213 | 3.92169 | 23703 ft | 397 kts | 233° |
| 2026-05-04 14:51 | 52.18502 | 3.88624 | 24008 ft | 399 kts | 233° |
| 2026-05-04 14:51 | 52.16788 | 3.85070 | 23989 ft | 399 kts | 233° |
| 2026-05-04 14:51 | 52.15093 | 3.81552 | 23995 ft | 400 kts | 233° |
| 2026-05-04 14:51 | 52.13373 | 3.77985 | 23998 ft | 401 kts | 233° |
| 2026-05-04 14:52 | 52.11649 | 3.74415 | 23991 ft | 400 kts | 233° |
| 2026-05-04 14:52 | 52.09927 | 3.70853 | 24002 ft | 400 kts | 233° |
| 2026-05-04 14:52 | 52.08202 | 3.67292 | 24006 ft | 400 kts | 233° |
| 2026-05-04 14:52 | 52.06471 | 3.63723 | 24004 ft | 400 kts | 233° |
| 2026-05-04 14:53 | 52.04747 | 3.60172 | 24003 ft | 400 kts | 233° |
| 2026-05-04 14:53 | 52.03040 | 3.56661 | 24008 ft | 400 kts | 233° |
| 2026-05-04 14:53 | 52.01313 | 3.53115 | 24010 ft | 400 kts | 233° |
| 2026-05-04 14:53 | 51.99580 | 3.49563 | 24012 ft | 400 kts | 233° |
| 2026-05-04 14:54 | 51.97891 | 3.45969 | 24006 ft | 402 kts | 233° |
| 2026-05-04 14:54 | 51.96239 | 3.42296 | 24015 ft | 403 kts | 234° |
| 2026-05-04 14:54 | 51.94600 | 3.38615 | 24021 ft | 403 kts | 234° |
| 2026-05-04 14:54 | 51.92968 | 3.34969 | 24011 ft | 404 kts | 234° |
| 2026-05-04 14:55 | 51.91311 | 3.31294 | 24007 ft | 404 kts | 234° |
| 2026-05-04 14:55 | 51.89647 | 3.27621 | 24004 ft | 403 kts | 234° |
| 2026-05-04 14:55 | 51.87983 | 3.23963 | 24004 ft | 403 kts | 234° |
| 2026-05-04 14:55 | 51.86319 | 3.20312 | 24005 ft | 402 kts | 234° |
| 2026-05-04 14:56 | 51.84729 | 3.16584 | 24004 ft | 402 kts | 239° |
| 2026-05-04 14:56 | 51.83401 | 3.12624 | 24004 ft | 401 kts | 244° |
| 2026-05-04 14:56 | 51.82158 | 3.08580 | 23996 ft | 401 kts | 244° |
| 2026-05-04 14:56 | 51.80904 | 3.04546 | 23994 ft | 401 kts | 243° |
| 2026-05-04 14:57 | 51.79661 | 3.00579 | 23994 ft | 401 kts | 243° |
| 2026-05-04 14:57 | 51.78391 | 2.96549 | 23995 ft | 401 kts | 243° |
| 2026-05-04 14:57 | 51.77124 | 2.92542 | 23991 ft | 401 kts | 243° |
| 2026-05-04 14:57 | 51.75848 | 2.88513 | 23999 ft | 401 kts | 242° |
| 2026-05-04 14:58 | 51.74572 | 2.84496 | 24001 ft | 402 kts | 242° |
| 2026-05-04 14:58 | 51.73315 | 2.80537 | 23992 ft | 402 kts | 242° |
| 2026-05-04 14:58 | 51.72035 | 2.76516 | 23992 ft | 402 kts | 242° |
| 2026-05-04 14:58 | 51.70757 | 2.72508 | 23993 ft | 402 kts | 243° |
| 2026-05-04 14:59 | 51.69631 | 2.68361 | 23994 ft | 403 kts | 249° |
| 2026-05-04 14:59 | 51.68795 | 2.64043 | 23996 ft | 404 kts | 254° |
| 2026-05-04 14:59 | 51.67830 | 2.55152 | 23995 ft | 405 kts | 261° |
| 2026-05-04 15:00 | 51.67448 | 2.50644 | 23994 ft | 406 kts | 261° |
| 2026-05-04 15:00 | 51.67048 | 2.46136 | 23994 ft | 406 kts | 260° |
| 2026-05-04 15:00 | 51.66630 | 2.41641 | 23995 ft | 406 kts | 260° |
| 2026-05-04 15:01 | 51.65773 | 2.32593 | 23995 ft | 408 kts | 259° |
| 2026-05-04 15:01 | 51.65345 | 2.28073 | 23996 ft | 409 kts | 259° |
| 2026-05-04 15:01 | 51.64920 | 2.23590 | 23995 ft | 410 kts | 259° |
| 2026-05-04 15:01 | 51.64487 | 2.19028 | 23995 ft | 410 kts | 259° |
| 2026-05-04 15:02 | 51.64055 | 2.14497 | 23995 ft | 410 kts | 259° |
| 2026-05-04 15:02 | 51.63620 | 2.09956 | 23997 ft | 410 kts | 259° |
| 2026-05-04 15:02 | 51.63205 | 2.05399 | 23987 ft | 406 kts | 260° |
| 2026-05-04 15:02 | 51.62808 | 2.00950 | 23341 ft | 407 kts | 260° |
| 2026-05-04 15:03 | 51.62405 | 1.96476 | 22862 ft | 399 kts | 260° |
| 2026-05-04 15:03 | 51.62006 | 1.92117 | 22540 ft | 389 kts | 260° |
| 2026-05-04 15:03 | 51.61563 | 1.87858 | 22205 ft | 385 kts | 255° |
| 2026-05-04 15:03 | 51.60662 | 1.83800 | 21829 ft | 387 kts | 243° |
| 2026-05-04 15:04 | 51.59296 | 1.80064 | 21516 ft | 388 kts | 233° |
| 2026-05-04 15:04 | 51.57550 | 1.76743 | 21207 ft | 387 kts | 227° |
| 2026-05-04 15:04 | 51.55740 | 1.73553 | 20904 ft | 385 kts | 227° |
| 2026-05-04 15:04 | 51.53947 | 1.70353 | 20581 ft | 384 kts | 227° |
| 2026-05-04 15:05 | 51.52170 | 1.67142 | 20289 ft | 383 kts | 227° |
| 2026-05-04 15:05 | 51.50430 | 1.63985 | 19958 ft | 382 kts | 227° |
| 2026-05-04 15:05 | 51.48774 | 1.60666 | 19547 ft | 381 kts | 238° |
| 2026-05-04 15:05 | 51.47756 | 1.56768 | 19166 ft | 377 kts | 251° |
| 2026-05-04 15:06 | 51.46944 | 1.52770 | 18749 ft | 377 kts | 250° |
| 2026-05-04 15:06 | 51.46065 | 1.48821 | 18229 ft | 375 kts | 249° |
| 2026-05-04 15:06 | 51.45161 | 1.44903 | 17617 ft | 374 kts | 249° |
| 2026-05-04 15:07 | 51.43092 | 1.37420 | 16469 ft | 363 kts | 231° |
| 2026-05-04 15:07 | 51.41271 | 1.34723 | 15804 ft | 360 kts | 216° |
| 2026-05-04 15:07 | 51.39228 | 1.32379 | 15148 ft | 362 kts | 216° |
| 2026-05-04 15:07 | 51.37186 | 1.30009 | 14568 ft | 362 kts | 216° |
| 2026-05-04 15:08 | 51.35804 | 1.28396 | 14164 ft | 362 kts | 216° |
| 2026-05-04 15:08 | 51.33799 | 1.26045 | 13547 ft | 362 kts | 216° |
| 2026-05-04 15:08 | 51.31767 | 1.23657 | 12890 ft | 362 kts | 216° |
| 2026-05-04 15:08 | 51.29743 | 1.21276 | 12248 ft | 362 kts | 216° |
| 2026-05-04 15:09 | 51.27051 | 1.18108 | 11411 ft | 361 kts | 216° |
| 2026-05-04 15:09 | 51.25683 | 1.16501 | 10997 ft | 360 kts | 217° |
| 2026-05-04 15:09 | 51.23687 | 1.14154 | 10394 ft | 359 kts | 217° |
| 2026-05-04 15:10 | 51.19668 | 1.09436 | 9135 ft | 357 kts | 217° |
| 2026-05-04 15:10 | 51.17678 | 1.07103 | 8640 ft | 351 kts | 217° |
| 2026-05-04 15:10 | 51.13860 | 1.02635 | 7975 ft | 333 kts | 217° |
| 2026-05-04 15:11 | 51.12010 | 1.00473 | 7642 ft | 325 kts | 217° |
| 2026-05-04 15:11 | 51.10194 | 0.98353 | 7320 ft | 321 kts | 217° |
| 2026-05-04 15:11 | 51.08391 | 0.96251 | 7092 ft | 318 kts | 217° |
| 2026-05-04 15:11 | 51.06632 | 0.94191 | 7061 ft | 316 kts | 219° |
| 2026-05-04 15:12 | 51.05117 | 0.91619 | 7015 ft | 324 kts | 238° |
| 2026-05-04 15:12 | 51.04201 | 0.88333 | 6988 ft | 326 kts | 255° |
| 2026-05-04 15:12 | 51.03666 | 0.84804 | 7012 ft | 330 kts | 257° |
| 2026-05-04 15:12 | 51.03141 | 0.81252 | 6993 ft | 329 kts | 257° |
| 2026-05-04 15:13 | 51.02616 | 0.77724 | 7014 ft | 328 kts | 257° |
| 2026-05-04 15:13 | 51.02085 | 0.74197 | 6996 ft | 328 kts | 257° |
| 2026-05-04 15:13 | 51.01549 | 0.70671 | 7011 ft | 328 kts | 257° |
| 2026-05-04 15:13 | 51.01009 | 0.67151 | 6992 ft | 328 kts | 257° |
| 2026-05-04 15:14 | 51.00470 | 0.63670 | 6996 ft | 327 kts | 257° |
| 2026-05-04 15:14 | 50.99922 | 0.60153 | 6996 ft | 327 kts | 256° |
| 2026-05-04 15:14 | 50.99372 | 0.56633 | 7005 ft | 327 kts | 256° |
| 2026-05-04 15:14 | 50.98820 | 0.53118 | 7019 ft | 329 kts | 256° |
| 2026-05-04 15:15 | 50.98266 | 0.49593 | 6989 ft | 325 kts | 257° |
| 2026-05-04 15:15 | 50.97740 | 0.46253 | 6981 ft | 307 kts | 257° |
| 2026-05-04 15:15 | 50.97236 | 0.43055 | 6981 ft | 291 kts | 257° |
| 2026-05-04 15:16 | 50.96290 | 0.37070 | 6992 ft | 274 kts | 256° |
| 2026-05-04 15:16 | 50.95826 | 0.34144 | 6995 ft | 273 kts | 256° |
| 2026-05-04 15:16 | 50.95074 | 0.28258 | 6998 ft | 271 kts | 266° |
| 2026-05-04 15:17 | 50.95009 | 0.25297 | 6974 ft | 272 kts | 270° |
| 2026-05-04 15:17 | 50.95015 | 0.19163 | 6204 ft | 281 kts | 271° |
| 2026-05-04 15:17 | 50.95024 | 0.16050 | 5773 ft | 282 kts | 271° |
| 2026-05-04 15:18 | 50.95028 | 0.12930 | 5365 ft | 284 kts | 271° |
| 2026-05-04 15:18 | 50.95030 | 0.09791 | 5004 ft | 284 kts | 271° |
| 2026-05-04 15:18 | 50.95031 | 0.06675 | 4672 ft | 281 kts | 271° |
| 2026-05-04 15:19 | 50.95024 | 0.00560 | 4053 ft | 276 kts | 271° |
| 2026-05-04 15:19 | 50.95023 | -0.02468 | 3805 ft | 271 kts | 271° |
| 2026-05-04 15:19 | 50.95307 | -0.08238 | 3535 ft | 259 kts | 280° |
| 2026-05-04 15:20 | 50.95613 | -0.11054 | 3413 ft | 260 kts | 281° |
| 2026-05-04 15:20 | 50.95928 | -0.13890 | 3286 ft | 261 kts | 281° |
| 2026-05-04 15:20 | 50.96252 | -0.16729 | 3156 ft | 259 kts | 284° |
| 2026-05-04 15:20 | 50.96851 | -0.19433 | 3074 ft | 261 kts | 294° |
| 2026-05-04 15:21 | 50.97591 | -0.22035 | 3024 ft | 262 kts | 295° |
| 2026-05-04 15:21 | 50.98361 | -0.24657 | 2980 ft | 253 kts | 296° |
| 2026-05-04 15:21 | 50.99623 | -0.29569 | 2957 ft | 229 kts | 291° |
| 2026-05-04 15:22 | 51.00164 | -0.31873 | 2952 ft | 216 kts | 291° |
| 2026-05-04 15:22 | 51.00677 | -0.34065 | 2963 ft | 209 kts | 291° |
| 2026-05-04 15:22 | 51.01679 | -0.38367 | 2990 ft | 207 kts | 291° |
| 2026-05-04 15:23 | 51.02180 | -0.40439 | 2988 ft | 193 kts | 298° |
| 2026-05-04 15:23 | 51.03005 | -0.42045 | 2991 ft | 188 kts | 332° |
| 2026-05-04 15:23 | 51.04248 | -0.42598 | 3008 ft | 187 kts | 349° |
| 2026-05-04 15:23 | 51.05523 | -0.43080 | 3011 ft | 190 kts | 346° |
| 2026-05-04 15:24 | 51.08062 | -0.44154 | 2976 ft | 183 kts | 346° |
| 2026-05-04 15:24 | 51.10540 | -0.44572 | 2983 ft | 182 kts | 26° |
| 2026-05-04 15:25 | 51.11393 | -0.43174 | 2996 ft | 184 kts | 68° |
| 2026-05-04 15:25 | 51.11694 | -0.41202 | 3029 ft | 182 kts | 76° |
| 2026-05-04 15:25 | 51.11984 | -0.39221 | 3005 ft | 180 kts | 76° |
| 2026-05-04 15:26 | 51.12481 | -0.35670 | 2771 ft | 158 kts | 77° |
| 2026-05-04 15:26 | 51.12702 | -0.33970 | 2457 ft | 154 kts | 78° |
| 2026-05-04 15:26 | 51.13160 | -0.30655 | 1807 ft | 158 kts | 77° |
| 2026-05-04 15:27 | 51.13417 | -0.28982 | 1484 ft | 143 kts | 77° |
| 2026-05-04 15:27 | 51.13844 | -0.25917 | 944 ft | 135 kts | 77° |
| 2026-05-04 15:28 | 51.14238 | -0.23077 | 513 ft | 131 kts | 73° |
| 2026-05-04 15:28 | 51.14445 | -0.21641 | 351 ft | 135 kts | 78° |
| 2026-05-04 15:28 | 51.14823 | -0.18913 | 218 ft | 72 kts | 77° |
| 2026-05-04 15:29 | 51.14903 | -0.18402 | 220 ft | 43 kts | 78° |
| 2026-05-04 15:30 | 51.15145 | -0.17766 | 212 ft | 11 kts | 355° |
| 2026-05-04 15:30 | 51.15289 | -0.17547 | 220 ft | 12 kts | 76° |
| 2026-05-04 15:31 | 51.15387 | -0.17387 | 215 ft | 16 kts | 347° |
| 2026-05-04 15:31 | 51.15503 | -0.17423 | 214 ft | 17 kts | 349° |
| 2026-05-04 15:32 | 51.15636 | -0.17094 | 213 ft | 13 kts | 77° |
| 2026-05-04 15:32 | 51.15657 | -0.16953 | 215 ft | 10 kts | 76° |
| 2026-05-04 15:33 | 51.15706 | -0.16737 | 218 ft | 6 kts | 4° |
| 2026-05-04 15:34 | 51.15760 | -0.16752 | 219 ft | 0 kts | 348° |